createdAt,value
2018-10-19T00:00:23.551Z,41.45
2018-10-19T00:02:50.737Z,44.53
2018-10-19T00:05:18.060Z,42.90
2018-10-19T00:07:45.220Z,45.98
2018-10-19T00:10:12.423Z,40.08
2018-10-19T00:12:39.659Z,42.60
2018-10-19T00:15:07.184Z,44.40
2018-10-19T00:17:34.349Z,40.05
2018-10-19T00:20:01.536Z,43.10
2018-10-19T00:22:28.724Z,39.20
2018-10-19T00:24:55.942Z,39.75
2018-10-19T00:27:23.131Z,39.73
2018-10-19T00:29:50.310Z,35.48
2018-10-19T00:32:17.516Z,37.65
2018-10-19T00:34:44.705Z,30.48
2018-10-19T00:37:11.921Z,34.00
2018-10-19T00:39:39.107Z,36.45
2018-10-19T00:42:06.307Z,33.48
2018-10-19T00:44:33.538Z,31.90
2018-10-19T00:47:00.741Z,31.00
2018-10-19T00:49:27.915Z,27.85
2018-10-19T00:51:55.124Z,34.13
2018-10-19T00:54:22.315Z,29.80
2018-10-19T00:56:49.489Z,36.30
2018-10-19T00:59:16.700Z,36.90
2018-10-19T01:01:43.899Z,37.83
2018-10-19T01:04:11.225Z,40.35
2018-10-19T01:06:38.421Z,43.50
2018-10-19T01:09:06.162Z,41.28
2018-10-19T01:11:33.370Z,39.55
2018-10-19T01:14:00.569Z,42.53
2018-10-19T01:16:27.769Z,39.83
2018-10-19T01:18:54.973Z,39.60
2018-10-19T01:21:22.191Z,39.90
2018-10-19T01:23:49.383Z,37.45
2018-10-19T01:26:16.607Z,41.65
2018-10-19T01:28:43.812Z,40.67
2018-10-19T01:31:10.997Z,37.42
2018-10-19T01:33:38.225Z,38.33
2018-10-19T01:36:05.993Z,38.50
2018-10-19T01:38:33.195Z,39.23
2018-10-19T01:41:00.406Z,32.25
2018-10-19T01:43:27.590Z,36.55
2018-10-19T01:45:57.526Z,35.00
2018-10-19T01:48:25.378Z,35.50
2018-10-19T01:50:52.617Z,31.25
2018-10-19T01:53:19.800Z,35.55
2018-10-19T01:55:47.256Z,36.20
2018-10-19T01:58:14.688Z,29.90
2018-10-19T02:00:41.888Z,30.15
2018-10-19T02:03:09.268Z,28.80
2018-10-19T02:05:36.661Z,30.82
2018-10-19T02:08:03.854Z,29.87
2018-10-19T02:10:31.064Z,28.07
2018-10-19T02:12:58.298Z,28.05
2018-10-19T02:15:25.509Z,22.37
2018-10-19T02:17:52.699Z,27.20
2018-10-19T02:20:19.882Z,28.02
2018-10-19T02:22:47.088Z,27.93
2018-10-19T02:25:14.291Z,28.65
2018-10-19T02:27:41.501Z,29.48
2018-10-19T02:30:08.694Z,25.17
2018-10-19T02:32:36.123Z,25.95
2018-10-19T02:35:03.386Z,27.35
2018-10-19T02:37:30.535Z,22.80
2018-10-19T02:39:57.743Z,29.07
2018-10-19T02:42:24.923Z,23.62
2018-10-19T02:44:52.180Z,30.02
2018-10-19T02:47:19.354Z,30.08
2018-10-19T02:49:46.568Z,27.10
2018-10-19T02:52:13.756Z,31.50
2018-10-19T02:54:40.938Z,22.62
2018-10-19T02:57:08.388Z,30.17
2018-10-19T02:59:35.387Z,29.75
2018-10-19T03:02:02.593Z,30.77
2018-10-19T03:04:29.800Z,32.38
2018-10-19T03:06:57.021Z,30.55
2018-10-19T03:09:24.226Z,32.65
2018-10-19T03:11:51.407Z,32.03
2018-10-19T03:14:18.597Z,34.18
2018-10-19T03:16:46.168Z,29.32
2018-10-19T03:19:13.351Z,30.68
2018-10-19T03:21:40.749Z,29.02
2018-10-19T03:24:07.952Z,31.35
2018-10-19T03:26:35.151Z,30.80
2018-10-19T03:29:02.381Z,29.72
2018-10-19T03:31:29.563Z,31.65
2018-10-19T03:33:56.755Z,28.60
2018-10-19T03:36:23.959Z,30.10
2018-10-19T03:38:51.164Z,31.75
2018-10-19T03:41:18.422Z,30.72
2018-10-19T03:43:45.622Z,30.40
2018-10-19T03:46:12.805Z,32.17
2018-10-19T03:48:40.403Z,27.70
2018-10-19T03:51:07.669Z,31.73
2018-10-19T03:53:35.065Z,28.67
2018-10-19T03:56:02.268Z,30.57
2018-10-19T03:58:29.451Z,28.90
2018-10-19T04:00:56.839Z,31.60
2018-10-19T04:03:24.112Z,32.23
2018-10-19T04:05:51.299Z,31.93
2018-10-19T04:08:18.780Z,29.30
2018-10-19T04:10:45.992Z,30.85
2018-10-19T04:13:13.326Z,28.83
2018-10-19T04:15:40.524Z,28.55
2018-10-19T04:18:07.720Z,28.92
2018-10-19T04:20:35.128Z,30.30
2018-10-19T04:23:07.131Z,29.32
2018-10-19T04:25:34.549Z,27.70
2018-10-19T04:28:01.947Z,30.20
2018-10-19T04:30:29.464Z,28.42
2018-10-19T04:32:56.915Z,28.60
2018-10-19T04:35:24.212Z,31.45
2018-10-19T04:37:51.567Z,29.37
2018-10-19T04:40:19.682Z,27.20
2018-10-19T04:42:48.095Z,27.55
2018-10-19T04:45:15.944Z,26.15
2018-10-19T04:47:43.313Z,28.38
2018-10-19T04:50:10.595Z,28.52
2018-10-19T04:52:38.459Z,27.32
2018-10-19T04:55:06.447Z,27.22
2018-10-19T04:57:33.633Z,28.73
2018-10-19T05:00:00.869Z,26.37
2018-10-19T05:02:28.057Z,27.58
2018-10-19T05:04:55.312Z,29.48
2018-10-19T05:07:22.687Z,27.25
2018-10-19T05:09:50.450Z,29.63
2018-10-19T05:12:17.719Z,27.65
2018-10-19T05:14:44.933Z,27.77
2018-10-19T05:17:12.205Z,30.35
2018-10-19T05:19:39.344Z,26.97
2018-10-19T05:22:06.535Z,27.60
2018-10-19T05:24:33.877Z,25.72
2018-10-19T05:29:46.592Z,25.25
2018-10-19T05:32:13.797Z,25.37
2018-10-19T05:34:47.348Z,26.33
2018-10-19T05:37:14.567Z,26.62
2018-10-19T05:39:41.751Z,27.87
2018-10-19T05:42:08.952Z,29.02
2018-10-19T05:44:36.259Z,29.85
2018-10-19T05:47:03.484Z,28.67
2018-10-19T05:49:30.653Z,25.32
2018-10-19T05:51:57.900Z,26.97
2018-10-19T05:54:25.607Z,25.57
2018-10-19T05:56:52.782Z,29.15
2018-10-19T05:59:19.983Z,27.55
2018-10-19T06:01:47.163Z,32.30
2018-10-19T06:04:14.356Z,26.68
2018-10-19T06:06:41.534Z,27.13
2018-10-19T06:09:09.968Z,30.45
2018-10-19T06:11:37.253Z,26.90
2018-10-19T06:14:04.462Z,34.43
2018-10-19T06:16:31.664Z,31.90
2018-10-19T06:18:58.844Z,32.83
2018-10-19T06:21:26.043Z,31.65
2018-10-19T06:23:53.261Z,28.98
2018-10-19T06:26:20.462Z,35.03
2018-10-19T06:28:47.659Z,33.70
2018-10-19T06:31:14.859Z,34.40
2018-10-19T06:33:42.146Z,31.93
2018-10-19T06:36:09.320Z,34.33
2018-10-19T06:38:36.521Z,36.03
2018-10-19T06:41:03.755Z,36.08
2018-10-19T06:43:30.943Z,34.18
2018-10-19T06:45:58.271Z,32.67
2018-10-19T06:48:25.527Z,35.88
2018-10-19T06:50:52.743Z,32.80
2018-10-19T06:53:20.029Z,30.10
2018-10-19T06:55:47.384Z,31.87
2018-10-19T06:58:14.595Z,34.35
2018-10-19T07:00:41.791Z,32.33
2018-10-19T07:03:09.293Z,31.87
2018-10-19T07:05:36.572Z,36.35
2018-10-19T07:08:03.818Z,34.13
2018-10-19T07:10:30.997Z,36.50
2018-10-19T07:12:58.203Z,26.70
2018-10-19T07:15:25.394Z,30.12
2018-10-19T07:17:52.578Z,30.70
2018-10-19T07:20:19.785Z,26.35
2018-10-19T07:22:46.975Z,27.70
2018-10-19T07:25:14.186Z,28.30
2018-10-19T07:27:41.374Z,28.15
2018-10-19T07:30:08.705Z,27.98
2018-10-19T07:32:35.965Z,26.62
2018-10-19T07:35:03.176Z,25.55
2018-10-19T07:37:30.372Z,28.05
2018-10-19T07:39:57.588Z,25.27
2018-10-19T07:42:24.885Z,24.27
2018-10-19T07:44:52.002Z,26.37
2018-10-19T07:47:19.373Z,25.10
2018-10-19T07:49:46.408Z,23.85
2018-10-19T07:52:13.599Z,24.35
2018-10-19T07:54:40.791Z,24.50
2018-10-19T07:57:08.075Z,21.42
2018-10-19T07:59:35.271Z,21.95
2018-10-19T08:02:02.514Z,22.52
2018-10-19T08:04:29.657Z,20.60
2018-10-19T08:06:57.025Z,22.62
2018-10-19T08:09:24.226Z,18.27
2018-10-19T08:11:51.427Z,16.90
2018-10-19T08:14:18.651Z,17.55
2018-10-19T08:16:45.888Z,15.10
2018-10-19T08:19:13.140Z,13.85
2018-10-19T08:21:40.331Z,15.90
2018-10-19T08:24:07.526Z,15.28
2018-10-19T08:26:34.729Z,12.43
2018-10-19T08:29:02.032Z,11.48
2018-10-19T08:31:29.174Z,11.25
2018-10-19T08:33:56.361Z,11.60
2018-10-19T08:36:23.749Z,11.88
2018-10-19T08:38:50.984Z,11.38
2018-10-19T08:41:18.248Z,12.43
2018-10-19T08:43:45.729Z,11.88
2018-10-19T08:46:18.380Z,10.53
2018-10-19T08:48:45.562Z,11.50
2018-10-19T08:51:12.803Z,9.50
2018-10-19T08:53:39.973Z,8.95
2018-10-19T08:56:07.131Z,7.50
2018-10-19T08:58:34.400Z,7.65
2018-10-19T09:01:01.717Z,9.05
2018-10-19T09:03:28.962Z,8.43
2018-10-19T09:05:56.107Z,9.25
2018-10-19T09:08:23.304Z,10.10
2018-10-19T09:10:50.513Z,11.05
2018-10-19T09:13:17.721Z,12.93
2018-10-19T09:15:44.922Z,14.07
2018-10-19T09:18:12.518Z,14.30
2018-10-19T09:20:39.768Z,16.50
2018-10-19T09:23:07.013Z,16.00
2018-10-19T09:25:34.203Z,17.45
2018-10-19T09:28:01.443Z,21.55
2018-10-19T09:30:28.637Z,20.20
2018-10-19T09:32:55.840Z,18.65
2018-10-19T09:35:23.044Z,15.68
2018-10-19T09:37:50.223Z,21.35
2018-10-19T09:40:17.512Z,19.55
2018-10-19T09:42:44.692Z,20.55
2018-10-19T09:45:11.941Z,22.40
2018-10-19T09:47:39.145Z,19.12
2018-10-19T09:50:06.447Z,23.15
2018-10-19T09:52:33.644Z,18.77
2018-10-19T09:55:00.896Z,22.20
2018-10-19T09:57:28.703Z,22.25
2018-10-19T09:59:55.906Z,19.60
2018-10-19T10:02:24.258Z,19.65
2018-10-19T10:04:51.662Z,21.82
2018-10-19T10:07:19.439Z,22.70
2018-10-19T10:09:46.758Z,22.82
2018-10-19T10:12:14.215Z,22.37
2018-10-19T10:14:41.887Z,23.70
2018-10-19T10:17:09.112Z,25.72
2018-10-19T10:19:36.312Z,27.48
2018-10-19T10:22:03.545Z,26.07
2018-10-19T10:24:30.844Z,25.08
2018-10-19T10:26:58.049Z,26.87
2018-10-19T10:29:25.235Z,24.98
2018-10-19T10:31:52.511Z,25.43
2018-10-19T10:34:20.054Z,24.43
2018-10-19T10:36:47.800Z,21.95
2018-10-19T10:39:15.157Z,26.23
2018-10-19T10:41:42.300Z,24.63
2018-10-19T10:44:09.667Z,27.62
2018-10-19T10:46:37.288Z,28.60
2018-10-19T10:49:05.284Z,28.73
2018-10-19T10:51:32.443Z,29.20
2018-10-19T10:53:59.624Z,26.25
2018-10-19T10:56:26.852Z,29.07
2018-10-19T10:58:54.363Z,29.77
2018-10-19T11:01:21.601Z,31.00
2018-10-19T11:03:48.791Z,31.10
2018-10-19T11:06:15.985Z,26.55
2018-10-19T11:08:43.193Z,30.88
2018-10-19T11:11:12.835Z,29.85
2018-10-19T11:13:41.094Z,32.13
2018-10-19T11:16:09.286Z,32.30
2018-10-19T11:18:36.523Z,29.40
2018-10-19T11:21:04.166Z,30.30
2018-10-19T11:23:31.651Z,26.82
2018-10-19T11:25:59.018Z,30.40
2018-10-19T11:28:26.706Z,27.87
2018-10-19T11:30:53.943Z,27.58
2018-10-19T11:33:21.277Z,23.77
2018-10-19T11:35:48.483Z,24.60
2018-10-19T11:38:15.683Z,28.20
2018-10-19T11:40:42.872Z,26.30
2018-10-19T11:43:10.064Z,30.25
2018-10-19T11:45:38.260Z,29.72
2018-10-19T11:48:05.450Z,27.90
2018-10-19T11:50:32.660Z,29.90
2018-10-19T11:53:00.480Z,29.95
2018-10-19T11:55:30.545Z,27.75
2018-10-19T11:57:57.816Z,30.05
2018-10-19T12:00:24.968Z,26.33
2018-10-19T12:02:53.781Z,26.80
2018-10-19T12:05:21.508Z,26.62
2018-10-19T12:07:48.912Z,23.85
2018-10-19T12:10:16.577Z,21.93
2018-10-19T12:12:44.074Z,24.65
2018-10-19T12:15:14.775Z,32.07
2018-10-19T12:17:42.691Z,24.83
2018-10-19T12:20:14.066Z,27.00
2018-10-19T12:22:41.389Z,42.00
2018-10-19T12:25:10.247Z,26.00
2018-10-19T12:27:37.985Z,28.93
2018-10-19T12:30:05.457Z,22.87
2018-10-19T12:32:32.982Z,21.60
2018-10-19T12:35:00.191Z,22.40
2018-10-19T12:37:27.530Z,28.67
2018-10-19T12:39:55.066Z,26.90
2018-10-19T12:42:22.283Z,22.40
2018-10-19T12:44:49.465Z,21.73
2018-10-19T12:47:22.390Z,42.03
2018-10-19T12:49:49.604Z,26.77
2018-10-19T12:52:16.787Z,22.40
2018-10-19T12:54:43.988Z,21.50
2018-10-19T12:57:11.199Z,20.67
2018-10-19T12:59:38.544Z,21.43
2018-10-19T13:02:10.055Z,22.03
2018-10-19T13:04:37.491Z,29.90
2018-10-19T13:07:05.233Z,28.03
2018-10-19T13:09:32.419Z,22.37
2018-10-19T13:11:59.672Z,22.03
2018-10-19T13:14:26.921Z,19.80
2018-10-19T13:16:54.119Z,21.13
2018-10-19T13:19:21.318Z,20.35
2018-10-19T13:21:48.573Z,21.10
2018-10-19T13:24:15.803Z,20.68
2018-10-19T13:26:42.989Z,20.30
2018-10-19T13:29:10.173Z,22.07
2018-10-19T13:31:37.363Z,21.33
2018-10-19T13:34:04.697Z,21.45
2018-10-19T13:36:32.021Z,20.75
2018-10-19T13:38:59.258Z,20.60
2018-10-19T13:41:26.418Z,20.02
2018-10-19T13:43:53.648Z,19.90
2018-10-19T13:46:20.839Z,20.88
2018-10-19T13:48:48.035Z,20.65
2018-10-19T13:51:15.371Z,20.60
2018-10-19T13:53:42.648Z,19.55
2018-10-19T13:56:09.843Z,21.15
2018-10-19T13:58:37.024Z,20.40
2018-10-19T14:01:04.524Z,36.53
2018-10-19T14:03:31.719Z,21.62
2018-10-19T14:05:58.893Z,19.65
2018-10-19T14:08:26.161Z,21.17
2018-10-19T14:10:53.341Z,21.52
2018-10-19T14:13:20.531Z,21.15
2018-10-19T14:15:47.733Z,24.10
2018-10-19T14:18:14.921Z,21.02
2018-10-19T14:20:42.118Z,24.10
2018-10-19T14:23:09.459Z,21.82
2018-10-19T14:25:36.502Z,21.80
2018-10-19T14:28:03.692Z,37.13
2018-10-19T14:30:30.874Z,24.57
2018-10-19T14:32:58.118Z,24.12
2018-10-19T14:35:25.268Z,24.65
2018-10-19T14:37:52.533Z,27.90
2018-10-19T14:40:20.426Z,23.55
2018-10-19T14:42:47.843Z,22.30
2018-10-19T14:45:15.800Z,21.62
2018-10-19T14:47:43.727Z,22.80
2018-10-19T14:50:12.225Z,22.05
2018-10-19T14:52:39.422Z,23.85
2018-10-19T14:55:07.589Z,25.00
2018-10-19T14:57:34.773Z,22.20
2018-10-19T15:00:01.954Z,21.48
2018-10-19T15:02:29.143Z,21.45
2018-10-19T15:04:56.382Z,23.40
2018-10-19T15:07:23.529Z,23.67
2018-10-19T15:09:50.880Z,23.83
2018-10-19T15:12:17.909Z,23.90
2018-10-19T15:14:45.086Z,22.55
2018-10-19T15:17:12.293Z,23.62
2018-10-19T15:19:39.497Z,21.25
2018-10-19T15:22:06.696Z,23.90
2018-10-19T15:24:33.889Z,23.77
2018-10-19T15:27:01.106Z,22.95
2018-10-19T15:29:28.385Z,22.27
2018-10-19T15:31:55.545Z,25.05
2018-10-19T15:34:22.741Z,22.32
2018-10-19T15:36:49.951Z,24.05
2018-10-19T15:39:17.209Z,24.50
2018-10-19T15:41:44.336Z,24.37
2018-10-19T15:44:11.818Z,25.65
2018-10-19T15:46:39.051Z,22.27
2018-10-19T15:49:06.220Z,24.40
2018-10-19T15:51:33.396Z,23.87
2018-10-19T15:54:01.144Z,26.12
2018-10-19T15:56:28.349Z,28.27
2018-10-19T15:58:55.532Z,24.75
2018-10-19T16:01:22.741Z,24.45
2018-10-19T16:03:50.116Z,24.87
2018-10-19T16:06:17.435Z,22.65
2018-10-19T16:08:44.618Z,20.62
2018-10-19T16:11:11.810Z,21.27
2018-10-19T16:13:39.007Z,23.15
2018-10-19T16:16:06.313Z,21.90
2018-10-19T16:18:33.639Z,21.45
2018-10-19T16:21:00.864Z,22.75
2018-10-19T16:23:28.031Z,21.07
2018-10-19T16:25:55.211Z,21.93
2018-10-19T16:28:22.440Z,23.00
2018-10-19T16:30:49.614Z,24.47
2018-10-19T16:33:16.986Z,25.10
2018-10-19T16:35:44.112Z,22.82
2018-10-19T16:38:11.297Z,24.05
2018-10-19T16:40:38.482Z,23.12
2018-10-19T16:43:05.670Z,21.27
2018-10-19T16:45:32.856Z,25.60
2018-10-19T16:48:00.120Z,24.80
2018-10-19T16:50:27.266Z,26.55
2018-10-19T16:52:54.466Z,27.73
2018-10-19T16:55:21.641Z,25.70
2018-10-19T16:57:48.835Z,23.77
2018-10-19T17:00:16.083Z,25.17
2018-10-19T17:02:43.245Z,23.62
2018-10-19T17:05:10.490Z,24.63
2018-10-19T17:07:37.663Z,25.32
2018-10-19T17:10:05.307Z,22.50
2018-10-19T17:12:32.538Z,25.08
2018-10-19T17:14:59.775Z,23.25
2018-10-19T17:17:26.936Z,23.83
2018-10-19T17:19:54.137Z,25.30
2018-10-19T17:22:21.322Z,22.77
2018-10-19T17:24:48.544Z,23.57
2018-10-19T17:27:15.822Z,24.02
2018-10-19T17:29:42.946Z,29.50
2018-10-19T17:32:10.159Z,29.02
2018-10-19T17:34:37.360Z,25.97
2018-10-19T17:37:04.804Z,26.07
2018-10-19T17:39:31.972Z,32.33
2018-10-19T17:41:59.186Z,54.63
2018-10-19T17:44:26.395Z,43.10
2018-10-19T17:46:53.600Z,38.33
2018-10-19T17:49:20.809Z,27.02
2018-10-19T17:51:48.024Z,24.70
2018-10-19T17:54:15.486Z,25.55
2018-10-19T17:56:42.675Z,27.93
2018-10-19T17:59:09.943Z,28.38
2018-10-19T18:01:37.119Z,31.52
2018-10-19T18:04:04.434Z,28.95
2018-10-19T18:06:31.797Z,27.25
2018-10-19T18:08:59.043Z,29.15
2018-10-19T18:11:26.233Z,31.60
2018-10-19T18:13:53.526Z,30.68
2018-10-19T18:16:20.697Z,32.70
2018-10-19T18:18:48.031Z,28.73
2018-10-19T18:21:15.301Z,29.72
2018-10-19T18:23:42.486Z,30.08
2018-10-19T18:26:09.716Z,29.55
2018-10-19T18:28:36.883Z,31.00
2018-10-19T18:31:04.197Z,32.83
2018-10-19T18:33:31.395Z,33.85
2018-10-19T18:35:58.583Z,30.92
2018-10-19T18:38:25.782Z,39.05
2018-10-19T18:40:52.978Z,37.08
2018-10-19T18:43:20.180Z,35.50
2018-10-19T18:45:47.396Z,36.23
2018-10-19T18:48:14.592Z,36.00
2018-10-19T18:50:41.821Z,37.67
2018-10-19T18:53:09.043Z,37.10
2018-10-19T18:55:36.206Z,38.70
2018-10-19T18:58:03.399Z,40.88
2018-10-19T19:00:30.584Z,40.45
2018-10-19T19:02:57.761Z,41.95
2018-10-19T19:05:24.965Z,36.65
2018-10-19T19:07:52.166Z,40.55
2018-10-19T19:10:19.366Z,41.92
2018-10-19T19:12:46.594Z,44.25
2018-10-19T19:15:13.818Z,39.53
2018-10-19T19:17:41.060Z,37.33
2018-10-19T19:20:14.087Z,35.10
2018-10-19T19:22:41.880Z,36.80
2018-10-19T19:25:14.557Z,36.10
2018-10-19T19:27:41.924Z,38.10
2018-10-19T19:30:09.367Z,38.88
2018-10-19T19:32:36.795Z,37.55
2018-10-19T19:35:04.029Z,37.17
2018-10-19T19:37:31.216Z,41.05
2018-10-19T19:39:58.439Z,41.13
2018-10-19T19:42:31.122Z,42.20
2018-10-19T19:44:58.346Z,40.45
2018-10-19T19:47:31.078Z,42.48
2018-10-19T19:50:00.841Z,41.53
2018-10-19T19:52:28.062Z,41.13
2018-10-19T19:54:55.248Z,41.20
2018-10-19T19:57:22.437Z,40.63
2018-10-19T19:59:49.639Z,39.45
2018-10-19T20:02:16.839Z,40.75
2018-10-19T20:04:44.014Z,41.00
2018-10-19T20:07:11.236Z,42.15
2018-10-19T20:09:38.445Z,42.93
2018-10-19T20:12:05.621Z,43.58
2018-10-19T20:14:32.818Z,43.30
2018-10-19T20:17:00.034Z,43.42
2018-10-19T20:19:27.246Z,42.27
2018-10-19T20:21:54.421Z,43.38
2018-10-19T20:24:21.671Z,42.03
2018-10-19T20:26:48.879Z,43.73
2018-10-19T20:29:16.137Z,43.80
2018-10-19T20:31:43.290Z,42.60
2018-10-19T20:34:10.484Z,40.88
2018-10-19T20:36:37.879Z,44.53
2018-10-19T20:39:06.652Z,46.28
2018-10-19T20:41:33.840Z,43.85
2018-10-19T20:44:01.066Z,42.25
2018-10-19T20:46:28.249Z,37.23
2018-10-19T20:48:55.452Z,38.38
2018-10-19T20:51:22.651Z,39.95
2018-10-19T20:53:49.857Z,37.98
2018-10-19T20:56:17.222Z,35.48
2018-10-19T20:58:44.411Z,36.68
2018-10-19T21:01:11.586Z,34.53
2018-10-19T21:03:38.795Z,35.30
2018-10-19T21:06:05.996Z,31.20
2018-10-19T21:08:33.171Z,25.88
2018-10-19T21:11:00.427Z,27.22
2018-10-19T21:13:27.578Z,34.78
2018-10-19T21:15:54.777Z,31.80
2018-10-19T21:18:21.965Z,36.08
2018-10-19T21:20:49.162Z,31.82
2018-10-19T21:23:16.414Z,29.37
2018-10-19T21:25:43.568Z,31.37
2018-10-19T21:28:10.743Z,31.50
2018-10-19T21:30:37.938Z,31.55
2018-10-19T21:33:05.271Z,30.15
2018-10-19T21:35:32.458Z,31.93
2018-10-19T21:37:59.703Z,32.78
2018-10-19T21:40:26.892Z,31.07
2018-10-19T21:42:54.075Z,26.35
2018-10-19T21:45:21.285Z,25.48
2018-10-19T21:47:48.484Z,25.20
2018-10-19T21:50:15.785Z,26.25
2018-10-19T21:52:43.009Z,26.45
2018-10-19T21:55:11.583Z,26.33
2018-10-19T21:57:39.052Z,26.27
2018-10-19T22:00:06.998Z,23.05
2018-10-19T22:02:34.197Z,26.57
2018-10-19T22:05:01.387Z,22.02
2018-10-19T22:07:28.634Z,23.70
2018-10-19T22:09:55.831Z,22.80
2018-10-19T22:12:23.023Z,21.40
2018-10-19T22:14:50.234Z,21.02
2018-10-19T22:17:17.431Z,23.10
2018-10-19T22:19:44.628Z,21.40
2018-10-19T22:22:11.828Z,21.30
2018-10-19T22:24:39.043Z,22.82
2018-10-19T22:27:06.313Z,25.40
2018-10-19T22:29:33.508Z,25.17
2018-10-19T22:32:00.699Z,21.60
2018-10-19T22:34:27.883Z,20.60
2018-10-19T22:36:55.119Z,21.02
2018-10-19T22:39:22.331Z,20.90
2018-10-19T22:41:49.530Z,20.77
2018-10-19T22:44:16.764Z,20.77
2018-10-19T22:46:43.967Z,23.05
2018-10-19T22:49:11.234Z,22.98
2018-10-19T22:51:38.361Z,21.02
2018-10-19T22:54:05.570Z,22.42
2018-10-19T22:56:32.775Z,22.17
2018-10-19T22:59:00.048Z,24.15
2018-10-19T23:01:27.202Z,21.52
2018-10-19T23:03:54.395Z,22.27
2018-10-19T23:06:21.591Z,24.07
2018-10-19T23:08:48.795Z,24.92
2018-10-19T23:11:16.036Z,22.22
2018-10-19T23:13:43.207Z,23.60
2018-10-19T23:16:10.389Z,23.05
2018-10-19T23:18:37.581Z,25.48
2018-10-19T23:21:05.243Z,22.65
2018-10-19T23:23:32.431Z,33.02
2018-10-19T23:25:59.640Z,29.98
2018-10-19T23:28:26.841Z,27.17
2018-10-19T23:30:54.082Z,28.73
2018-10-19T23:33:21.271Z,26.77
2018-10-19T23:35:48.477Z,25.50
2018-10-19T23:38:15.673Z,27.70
2018-10-19T23:40:42.995Z,27.55
2018-10-19T23:43:10.268Z,26.68
2018-10-19T23:45:37.411Z,26.40
2018-10-19T23:48:04.714Z,27.27
2018-10-19T23:50:31.915Z,26.55
2018-10-19T23:52:59.151Z,26.65
2018-10-19T23:55:26.329Z,25.75
2018-10-19T23:57:53.522Z,25.55
